sensor_id;sensor_type;location;lat;lon;timestamp;P1;durP1;ratioP1;P2;durP2;ratioP2
76591;SDS011;65481;47.600;19.682;2023-04-15T00:01:14;9.35;;;5.90;;
76591;SDS011;65481;47.600;19.682;2023-04-15T00:06:18;9.57;;;6.25;;
76591;SDS011;65481;47.600;19.682;2023-04-15T00:11:19;7.93;;;5.82;;
76591;SDS011;65481;47.600;19.682;2023-04-15T00:16:20;14.20;;;9.25;;
76591;SDS011;65481;47.600;19.682;2023-04-15T00:21:20;14.85;;;8.98;;
76591;SDS011;65481;47.600;19.682;2023-04-15T00:26:21;10.40;;;7.45;;
76591;SDS011;65481;47.600;19.682;2023-04-15T00:31:21;9.40;;;6.75;;
76591;SDS011;65481;47.600;19.682;2023-04-15T00:36:22;9.85;;;7.18;;
76591;SDS011;65481;47.600;19.682;2023-04-15T00:41:23;8.50;;;6.45;;
76591;SDS011;65481;47.600;19.682;2023-04-15T00:46:25;10.98;;;7.88;;
76591;SDS011;65481;47.600;19.682;2023-04-15T00:51:27;11.45;;;6.65;;
76591;SDS011;65481;47.600;19.682;2023-04-15T00:56:28;10.95;;;6.82;;
76591;SDS011;65481;47.600;19.682;2023-04-15T01:01:29;11.20;;;7.30;;
76591;SDS011;65481;47.600;19.682;2023-04-15T01:06:31;9.73;;;6.97;;
76591;SDS011;65481;47.600;19.682;2023-04-15T01:11:32;10.77;;;7.32;;
76591;SDS011;65481;47.600;19.682;2023-04-15T01:16:33;10.10;;;6.85;;
76591;SDS011;65481;47.600;19.682;2023-04-15T01:21:37;8.88;;;6.20;;
76591;SDS011;65481;47.600;19.682;2023-04-15T01:26:39;10.35;;;7.03;;
76591;SDS011;65481;47.600;19.682;2023-04-15T01:31:40;8.52;;;6.65;;
76591;SDS011;65481;47.600;19.682;2023-04-15T01:36:40;10.63;;;6.75;;
76591;SDS011;65481;47.600;19.682;2023-04-15T01:41:41;10.55;;;7.05;;
76591;SDS011;65481;47.600;19.682;2023-04-15T01:46:41;12.00;;;7.72;;
76591;SDS011;65481;47.600;19.682;2023-04-15T01:51:41;11.05;;;7.35;;
76591;SDS011;65481;47.600;19.682;2023-04-15T01:56:42;12.07;;;7.75;;
76591;SDS011;65481;47.600;19.682;2023-04-15T02:01:43;14.18;;;7.85;;
76591;SDS011;65481;47.600;19.682;2023-04-15T02:06:44;11.00;;;7.75;;
76591;SDS011;65481;47.600;19.682;2023-04-15T02:11:45;12.82;;;8.60;;
76591;SDS011;65481;47.600;19.682;2023-04-15T02:16:45;11.23;;;7.95;;
76591;SDS011;65481;47.600;19.682;2023-04-15T02:21:46;11.95;;;8.38;;
76591;SDS011;65481;47.600;19.682;2023-04-15T02:26:46;12.75;;;7.68;;
76591;SDS011;65481;47.600;19.682;2023-04-15T02:31:47;12.20;;;8.18;;
76591;SDS011;65481;47.600;19.682;2023-04-15T02:36:48;10.88;;;7.85;;
76591;SDS011;65481;47.600;19.682;2023-04-15T02:41:49;15.88;;;10.65;;
76591;SDS011;65481;47.600;19.682;2023-04-15T02:46:52;21.95;;;13.25;;
76591;SDS011;65481;47.600;19.682;2023-04-15T02:51:54;16.70;;;10.45;;
76591;SDS011;65481;47.600;19.682;2023-04-15T02:56:54;12.93;;;9.05;;
76591;SDS011;65481;47.600;19.682;2023-04-15T03:01:55;15.27;;;9.35;;
76591;SDS011;65481;47.600;19.682;2023-04-15T03:07:00;16.13;;;10.00;;
76591;SDS011;65481;47.600;19.682;2023-04-15T03:12:01;18.70;;;11.18;;
76591;SDS011;65481;47.600;19.682;2023-04-15T03:17:02;17.00;;;10.90;;
76591;SDS011;65481;47.600;19.682;2023-04-15T03:22:02;17.75;;;10.82;;
76591;SDS011;65481;47.600;19.682;2023-04-15T03:27:03;17.83;;;11.57;;
76591;SDS011;65481;47.600;19.682;2023-04-15T03:32:05;19.63;;;12.00;;
76591;SDS011;65481;47.600;19.682;2023-04-15T03:37:06;26.48;;;15.63;;
76591;SDS011;65481;47.600;19.682;2023-04-15T03:42:07;25.48;;;16.13;;
76591;SDS011;65481;47.600;19.682;2023-04-15T03:47:07;28.52;;;19.60;;
76591;SDS011;65481;47.600;19.682;2023-04-15T03:52:08;34.15;;;21.70;;
76591;SDS011;65481;47.600;19.682;2023-04-15T03:57:08;26.30;;;15.23;;
76591;SDS011;65481;47.600;19.682;2023-04-15T04:02:09;24.10;;;14.52;;
76591;SDS011;65481;47.600;19.682;2023-04-15T04:07:13;23.52;;;13.27;;
76591;SDS011;65481;47.600;19.682;2023-04-15T04:12:15;25.70;;;13.98;;
76591;SDS011;65481;47.600;19.682;2023-04-15T04:17:15;22.80;;;13.70;;
76591;SDS011;65481;47.600;19.682;2023-04-15T04:22:16;23.25;;;14.38;;
76591;SDS011;65481;47.600;19.682;2023-04-15T04:27:16;22.15;;;13.07;;
76591;SDS011;65481;47.600;19.682;2023-04-15T04:32:17;22.98;;;12.68;;
76591;SDS011;65481;47.600;19.682;2023-04-15T04:37:17;22.48;;;15.13;;
76591;SDS011;65481;47.600;19.682;2023-04-15T04:42:18;41.67;;;18.85;;
76591;SDS011;65481;47.600;19.682;2023-04-15T04:47:18;33.28;;;23.75;;
76591;SDS011;65481;47.600;19.682;2023-04-15T04:52:19;19.00;;;12.65;;
76591;SDS011;65481;47.600;19.682;2023-04-15T04:57:20;19.55;;;12.10;;
76591;SDS011;65481;47.600;19.682;2023-04-15T05:02:20;20.17;;;12.30;;
76591;SDS011;65481;47.600;19.682;2023-04-15T05:07:21;25.83;;;10.50;;
76591;SDS011;65481;47.600;19.682;2023-04-15T05:12:21;20.98;;;10.70;;
76591;SDS011;65481;47.600;19.682;2023-04-15T05:17:22;17.20;;;10.75;;
76591;SDS011;65481;47.600;19.682;2023-04-15T05:22:23;18.40;;;10.95;;
76591;SDS011;65481;47.600;19.682;2023-04-15T05:27:23;19.90;;;10.27;;
76591;SDS011;65481;47.600;19.682;2023-04-15T05:32:24;18.88;;;11.18;;
76591;SDS011;65481;47.600;19.682;2023-04-15T05:37:26;14.45;;;9.85;;
76591;SDS011;65481;47.600;19.682;2023-04-15T05:42:26;14.45;;;10.05;;
76591;SDS011;65481;47.600;19.682;2023-04-15T05:47:27;14.75;;;9.35;;
76591;SDS011;65481;47.600;19.682;2023-04-15T05:52:27;13.88;;;9.38;;
76591;SDS011;65481;47.600;19.682;2023-04-15T05:57:28;17.52;;;10.25;;
76591;SDS011;65481;47.600;19.682;2023-04-15T06:02:28;14.40;;;9.43;;
76591;SDS011;65481;47.600;19.682;2023-04-15T06:07:29;17.80;;;10.77;;
76591;SDS011;65481;47.600;19.682;2023-04-15T06:12:29;16.85;;;11.88;;
76591;SDS011;65481;47.600;19.682;2023-04-15T06:17:30;19.17;;;11.75;;
76591;SDS011;65481;47.600;19.682;2023-04-15T06:22:30;18.38;;;11.90;;
76591;SDS011;65481;47.600;19.682;2023-04-15T06:27:31;23.50;;;14.15;;
76591;SDS011;65481;47.600;19.682;2023-04-15T06:32:31;23.65;;;14.20;;
76591;SDS011;65481;47.600;19.682;2023-04-15T06:37:32;23.92;;;16.27;;
76591;SDS011;65481;47.600;19.682;2023-04-15T06:42:32;18.10;;;12.43;;
76591;SDS011;65481;47.600;19.682;2023-04-15T06:47:34;17.80;;;11.35;;
76591;SDS011;65481;47.600;19.682;2023-04-15T06:52:34;17.83;;;11.40;;
76591;SDS011;65481;47.600;19.682;2023-04-15T06:57:35;14.32;;;9.43;;
76591;SDS011;65481;47.600;19.682;2023-04-15T07:02:35;16.88;;;9.85;;
76591;SDS011;65481;47.600;19.682;2023-04-15T07:07:36;9.15;;;7.45;;
76591;SDS011;65481;47.600;19.682;2023-04-15T07:12:37;9.30;;;6.70;;
76591;SDS011;65481;47.600;19.682;2023-04-15T07:17:37;7.32;;;6.28;;
76591;SDS011;65481;47.600;19.682;2023-04-15T07:22:38;9.75;;;8.30;;
76591;SDS011;65481;47.600;19.682;2023-04-15T07:27:39;7.05;;;6.20;;
76591;SDS011;65481;47.600;19.682;2023-04-15T07:32:40;6.90;;;6.20;;
76591;SDS011;65481;47.600;19.682;2023-04-15T07:37:41;6.03;;;5.40;;
76591;SDS011;65481;47.600;19.682;2023-04-15T07:42:42;6.97;;;4.97;;
76591;SDS011;65481;47.600;19.682;2023-04-15T07:47:43;5.22;;;4.70;;
76591;SDS011;65481;47.600;19.682;2023-04-15T07:52:44;6.00;;;4.97;;
76591;SDS011;65481;47.600;19.682;2023-04-15T07:57:44;6.70;;;6.03;;
76591;SDS011;65481;47.600;19.682;2023-04-15T08:02:46;6.05;;;5.05;;
76591;SDS011;65481;47.600;19.682;2023-04-15T08:07:47;6.57;;;5.63;;
76591;SDS011;65481;47.600;19.682;2023-04-15T08:12:47;6.53;;;4.70;;
76591;SDS011;65481;47.600;19.682;2023-04-15T08:17:48;5.78;;;4.20;;
76591;SDS011;65481;47.600;19.682;2023-04-15T08:22:49;4.75;;;3.60;;
76591;SDS011;65481;47.600;19.682;2023-04-15T08:27:51;5.35;;;3.85;;
76591;SDS011;65481;47.600;19.682;2023-04-15T08:32:51;4.70;;;4.20;;
76591;SDS011;65481;47.600;19.682;2023-04-15T08:37:52;5.13;;;4.50;;
76591;SDS011;65481;47.600;19.682;2023-04-15T08:42:52;5.20;;;4.32;;
76591;SDS011;65481;47.600;19.682;2023-04-15T08:47:56;6.20;;;4.20;;
76591;SDS011;65481;47.600;19.682;2023-04-15T08:52:58;4.30;;;3.25;;
76591;SDS011;65481;47.600;19.682;2023-04-15T08:57:59;6.00;;;4.03;;
76591;SDS011;65481;47.600;19.682;2023-04-15T09:03:01;4.70;;;3.53;;
76591;SDS011;65481;47.600;19.682;2023-04-15T09:08:04;5.15;;;3.80;;
76591;SDS011;65481;47.600;19.682;2023-04-15T09:13:05;4.70;;;3.40;;
76591;SDS011;65481;47.600;19.682;2023-04-15T09:18:06;4.78;;;3.60;;
76591;SDS011;65481;47.600;19.682;2023-04-15T09:23:13;5.00;;;3.53;;
76591;SDS011;65481;47.600;19.682;2023-04-15T09:28:14;5.05;;;3.88;;
76591;SDS011;65481;47.600;19.682;2023-04-15T09:33:24;4.65;;;3.42;;
76591;SDS011;65481;47.600;19.682;2023-04-15T09:38:28;8.27;;;3.08;;
76591;SDS011;65481;47.600;19.682;2023-04-15T09:43:38;2.65;;;1.95;;
76591;SDS011;65481;47.600;19.682;2023-04-15T09:48:39;2.50;;;2.10;;
76591;SDS011;65481;47.600;19.682;2023-04-15T09:53:40;0.80;;;0.70;;
76591;SDS011;65481;47.600;19.682;2023-04-15T09:58:40;1.60;;;0.50;;
76591;SDS011;65481;47.600;19.682;2023-04-15T10:03:42;0.98;;;0.68;;
76591;SDS011;65481;47.600;19.682;2023-04-15T10:08:44;1.38;;;0.80;;
76591;SDS011;65481;47.600;19.682;2023-04-15T10:13:46;0.73;;;0.60;;
76591;SDS011;65481;47.600;19.682;2023-04-15T10:18:50;8.45;;;2.25;;
76591;SDS011;65481;47.600;19.682;2023-04-15T10:28:57;1.60;;;0.65;;
76591;SDS011;65481;47.600;19.682;2023-04-15T10:33:58;1.67;;;0.80;;
76591;SDS011;65481;47.600;19.682;2023-04-15T10:39:06;4.00;;;0.90;;
76591;SDS011;65481;47.600;19.682;2023-04-15T10:44:32;0.98;;;0.70;;
76591;SDS011;65481;47.600;19.682;2023-04-15T10:49:35;0.95;;;0.70;;
76591;SDS011;65481;47.600;19.682;2023-04-15T10:55:02;1.03;;;0.50;;
76591;SDS011;65481;47.600;19.682;2023-04-15T11:00:14;1.52;;;0.60;;
76591;SDS011;65481;47.600;19.682;2023-04-15T11:05:16;1.15;;;0.63;;
76591;SDS011;65481;47.600;19.682;2023-04-15T11:15:28;1.83;;;0.63;;
76591;SDS011;65481;47.600;19.682;2023-04-15T11:20:32;1.50;;;0.50;;
76591;SDS011;65481;47.600;19.682;2023-04-15T11:25:33;0.60;;;0.55;;
76591;SDS011;65481;47.600;19.682;2023-04-15T11:30:35;0.82;;;0.45;;
76591;SDS011;65481;47.600;19.682;2023-04-15T11:35:36;0.47;;;0.47;;
76591;SDS011;65481;47.600;19.682;2023-04-15T11:40:37;0.45;;;0.45;;
76591;SDS011;65481;47.600;19.682;2023-04-15T11:50:57;1.45;;;0.50;;
76591;SDS011;65481;47.600;19.682;2023-04-15T11:56:02;0.50;;;0.40;;
76591;SDS011;65481;47.600;19.682;2023-04-15T12:01:02;0.68;;;0.40;;
76591;SDS011;65481;47.600;19.682;2023-04-15T12:06:08;0.57;;;0.40;;
76591;SDS011;65481;47.600;19.682;2023-04-15T12:16:36;1.30;;;0.80;;
76591;SDS011;65481;47.600;19.682;2023-04-15T12:21:48;1.75;;;1.02;;
76591;SDS011;65481;47.600;19.682;2023-04-15T12:26:50;0.85;;;0.60;;
76591;SDS011;65481;47.600;19.682;2023-04-15T12:31:53;0.70;;;0.32;;
76591;SDS011;65481;47.600;19.682;2023-04-15T12:36:54;0.88;;;0.30;;
76591;SDS011;65481;47.600;19.682;2023-04-15T12:41:57;1.38;;;0.40;;
76591;SDS011;65481;47.600;19.682;2023-04-15T12:46:59;0.85;;;0.47;;
76591;SDS011;65481;47.600;19.682;2023-04-15T12:52:00;0.40;;;0.30;;
76591;SDS011;65481;47.600;19.682;2023-04-15T12:57:01;0.40;;;0.32;;
76591;SDS011;65481;47.600;19.682;2023-04-15T13:02:02;0.57;;;0.40;;
76591;SDS011;65481;47.600;19.682;2023-04-15T13:07:03;0.40;;;0.30;;
76591;SDS011;65481;47.600;19.682;2023-04-15T13:12:03;0.73;;;0.50;;
76591;SDS011;65481;47.600;19.682;2023-04-15T13:17:04;1.40;;;0.40;;
76591;SDS011;65481;47.600;19.682;2023-04-15T13:22:09;0.60;;;0.60;;
76591;SDS011;65481;47.600;19.682;2023-04-15T13:27:10;0.60;;;0.50;;
76591;SDS011;65481;47.600;19.682;2023-04-15T13:32:11;0.30;;;0.30;;
76591;SDS011;65481;47.600;19.682;2023-04-15T13:37:11;0.80;;;0.50;;
76591;SDS011;65481;47.600;19.682;2023-04-15T13:42:12;0.55;;;0.40;;
76591;SDS011;65481;47.600;19.682;2023-04-15T13:47:12;1.35;;;0.60;;
76591;SDS011;65481;47.600;19.682;2023-04-15T13:52:15;0.57;;;0.50;;
76591;SDS011;65481;47.600;19.682;2023-04-15T13:57:15;0.40;;;0.30;;
76591;SDS011;65481;47.600;19.682;2023-04-15T14:02:16;0.68;;;0.40;;
76591;SDS011;65481;47.600;19.682;2023-04-15T14:07:16;0.65;;;0.40;;
76591;SDS011;65481;47.600;19.682;2023-04-15T14:12:16;0.77;;;0.50;;
76591;SDS011;65481;47.600;19.682;2023-04-15T14:17:17;0.98;;;0.77;;
76591;SDS011;65481;47.600;19.682;2023-04-15T14:22:18;1.15;;;0.80;;
76591;SDS011;65481;47.600;19.682;2023-04-15T14:27:18;1.20;;;0.75;;
76591;SDS011;65481;47.600;19.682;2023-04-15T14:32:19;1.10;;;0.80;;
76591;SDS011;65481;47.600;19.682;2023-04-15T14:37:20;0.80;;;0.70;;
76591;SDS011;65481;47.600;19.682;2023-04-15T14:42:22;0.98;;;0.80;;
76591;SDS011;65481;47.600;19.682;2023-04-15T14:47:22;0.80;;;0.55;;
76591;SDS011;65481;47.600;19.682;2023-04-15T14:52:23;2.72;;;0.80;;
76591;SDS011;65481;47.600;19.682;2023-04-15T14:57:24;0.80;;;0.47;;
76591;SDS011;65481;47.600;19.682;2023-04-15T15:02:24;1.15;;;0.60;;
76591;SDS011;65481;47.600;19.682;2023-04-15T15:07:25;1.27;;;0.90;;
76591;SDS011;65481;47.600;19.682;2023-04-15T15:12:25;1.08;;;0.73;;
76591;SDS011;65481;47.600;19.682;2023-04-15T15:17:26;0.70;;;0.70;;
76591;SDS011;65481;47.600;19.682;2023-04-15T15:22:26;0.90;;;0.80;;
76591;SDS011;65481;47.600;19.682;2023-04-15T15:27:27;1.05;;;0.85;;
76591;SDS011;65481;47.600;19.682;2023-04-15T15:32:28;1.80;;;0.90;;
76591;SDS011;65481;47.600;19.682;2023-04-15T15:37:29;1.88;;;0.88;;
76591;SDS011;65481;47.600;19.682;2023-04-15T15:42:30;2.00;;;1.50;;
76591;SDS011;65481;47.600;19.682;2023-04-15T15:47:31;1.20;;;0.90;;
76591;SDS011;65481;47.600;19.682;2023-04-15T15:52:31;2.22;;;0.90;;
76591;SDS011;65481;47.600;19.682;2023-04-15T15:57:32;1.45;;;0.80;;
76591;SDS011;65481;47.600;19.682;2023-04-15T16:02:32;1.40;;;0.80;;
76591;SDS011;65481;47.600;19.682;2023-04-15T16:07:33;1.58;;;1.13;;
76591;SDS011;65481;47.600;19.682;2023-04-15T16:12:34;1.20;;;0.90;;
76591;SDS011;65481;47.600;19.682;2023-04-15T16:17:34;2.03;;;1.10;;
76591;SDS011;65481;47.600;19.682;2023-04-15T16:22:35;1.80;;;1.13;;
76591;SDS011;65481;47.600;19.682;2023-04-15T16:27:36;1.48;;;0.90;;
76591;SDS011;65481;47.600;19.682;2023-04-15T16:32:37;1.23;;;1.00;;
76591;SDS011;65481;47.600;19.682;2023-04-15T16:37:37;2.40;;;1.10;;
76591;SDS011;65481;47.600;19.682;2023-04-15T16:42:38;2.35;;;1.08;;
76591;SDS011;65481;47.600;19.682;2023-04-15T16:47:40;1.85;;;1.10;;
76591;SDS011;65481;47.600;19.682;2023-04-15T16:52:40;1.75;;;1.10;;
76591;SDS011;65481;47.600;19.682;2023-04-15T16:57:41;1.52;;;1.30;;
76591;SDS011;65481;47.600;19.682;2023-04-15T17:02:41;3.10;;;1.25;;
76591;SDS011;65481;47.600;19.682;2023-04-15T17:07:42;1.75;;;1.15;;
76591;SDS011;65481;47.600;19.682;2023-04-15T17:12:42;2.45;;;1.50;;
76591;SDS011;65481;47.600;19.682;2023-04-15T17:17:43;1.73;;;1.10;;
76591;SDS011;65481;47.600;19.682;2023-04-15T17:22:44;1.65;;;1.08;;
76591;SDS011;65481;47.600;19.682;2023-04-15T17:27:45;1.63;;;1.20;;
76591;SDS011;65481;47.600;19.682;2023-04-15T17:32:46;1.58;;;1.27;;
76591;SDS011;65481;47.600;19.682;2023-04-15T17:37:46;5.25;;;3.25;;
76591;SDS011;65481;47.600;19.682;2023-04-15T17:42:47;2.42;;;1.30;;
76591;SDS011;65481;47.600;19.682;2023-04-15T17:47:48;2.88;;;2.22;;
76591;SDS011;65481;47.600;19.682;2023-04-15T17:52:49;3.63;;;2.20;;
76591;SDS011;65481;47.600;19.682;2023-04-15T17:57:50;19.02;;;7.75;;
76591;SDS011;65481;47.600;19.682;2023-04-15T18:02:51;31.60;;;10.82;;
76591;SDS011;65481;47.600;19.682;2023-04-15T18:07:53;28.17;;;10.88;;
76591;SDS011;65481;47.600;19.682;2023-04-15T18:12:54;24.60;;;11.63;;
76591;SDS011;65481;47.600;19.682;2023-04-15T18:17:55;35.75;;;19.17;;
76591;SDS011;65481;47.600;19.682;2023-04-15T18:22:56;44.17;;;23.90;;
76591;SDS011;65481;47.600;19.682;2023-04-15T18:27:56;42.47;;;24.92;;
76591;SDS011;65481;47.600;19.682;2023-04-15T18:32:57;13.82;;;8.18;;
76591;SDS011;65481;47.600;19.682;2023-04-15T18:37:57;9.93;;;5.45;;
76591;SDS011;65481;47.600;19.682;2023-04-15T18:42:58;13.63;;;7.95;;
76591;SDS011;65481;47.600;19.682;2023-04-15T18:47:59;18.13;;;14.55;;
76591;SDS011;65481;47.600;19.682;2023-04-15T18:52:59;8.95;;;6.28;;
76591;SDS011;65481;47.600;19.682;2023-04-15T18:58:00;13.88;;;12.32;;
76591;SDS011;65481;47.600;19.682;2023-04-15T19:03:01;18.35;;;12.75;;
76591;SDS011;65481;47.600;19.682;2023-04-15T19:08:01;47.53;;;31.92;;
76591;SDS011;65481;47.600;19.682;2023-04-15T19:13:02;19.08;;;11.27;;
76591;SDS011;65481;47.600;19.682;2023-04-15T19:18:03;16.55;;;8.98;;
76591;SDS011;65481;47.600;19.682;2023-04-15T19:23:09;8.55;;;5.20;;
76591;SDS011;65481;47.600;19.682;2023-04-15T19:28:10;11.88;;;7.15;;
76591;SDS011;65481;47.600;19.682;2023-04-15T19:33:11;10.32;;;8.48;;
76591;SDS011;65481;47.600;19.682;2023-04-15T19:38:11;8.30;;;5.18;;
76591;SDS011;65481;47.600;19.682;2023-04-15T19:43:12;9.77;;;5.45;;
76591;SDS011;65481;47.600;19.682;2023-04-15T19:48:13;13.18;;;5.82;;
76591;SDS011;65481;47.600;19.682;2023-04-15T19:53:15;13.18;;;8.07;;
76591;SDS011;65481;47.600;19.682;2023-04-15T19:58:16;12.07;;;7.60;;
76591;SDS011;65481;47.600;19.682;2023-04-15T20:03:16;8.93;;;6.20;;
76591;SDS011;65481;47.600;19.682;2023-04-15T20:08:17;19.65;;;12.77;;
76591;SDS011;65481;47.600;19.682;2023-04-15T20:13:18;22.75;;;12.63;;
76591;SDS011;65481;47.600;19.682;2023-04-15T20:18:19;20.95;;;13.07;;
76591;SDS011;65481;47.600;19.682;2023-04-15T20:23:22;15.35;;;10.43;;
76591;SDS011;65481;47.600;19.682;2023-04-15T20:28:22;13.32;;;9.75;;
76591;SDS011;65481;47.600;19.682;2023-04-15T20:33:26;13.20;;;8.93;;
76591;SDS011;65481;47.600;19.682;2023-04-15T20:38:27;12.88;;;9.00;;
76591;SDS011;65481;47.600;19.682;2023-04-15T20:43:28;11.40;;;8.48;;
76591;SDS011;65481;47.600;19.682;2023-04-15T20:48:28;11.98;;;7.82;;
76591;SDS011;65481;47.600;19.682;2023-04-15T20:53:29;18.77;;;11.40;;
76591;SDS011;65481;47.600;19.682;2023-04-15T20:58:30;19.17;;;11.32;;
76591;SDS011;65481;47.600;19.682;2023-04-15T21:03:31;14.77;;;11.20;;
76591;SDS011;65481;47.600;19.682;2023-04-15T21:08:31;18.90;;;12.18;;
76591;SDS011;65481;47.600;19.682;2023-04-15T21:13:32;37.88;;;20.23;;
76591;SDS011;65481;47.600;19.682;2023-04-15T21:18:32;14.10;;;9.52;;
76591;SDS011;65481;47.600;19.682;2023-04-15T21:23:33;9.93;;;7.38;;
76591;SDS011;65481;47.600;19.682;2023-04-15T21:28:36;14.20;;;9.52;;
76591;SDS011;65481;47.600;19.682;2023-04-15T21:33:38;6.70;;;5.45;;
76591;SDS011;65481;47.600;19.682;2023-04-15T21:38:38;10.38;;;6.93;;
76591;SDS011;65481;47.600;19.682;2023-04-15T21:43:39;13.02;;;8.63;;
76591;SDS011;65481;47.600;19.682;2023-04-15T21:48:39;14.18;;;9.77;;
76591;SDS011;65481;47.600;19.682;2023-04-15T21:53:40;16.33;;;10.65;;
76591;SDS011;65481;47.600;19.682;2023-04-15T21:58:40;14.90;;;10.75;;
76591;SDS011;65481;47.600;19.682;2023-04-15T22:03:41;15.05;;;11.88;;
76591;SDS011;65481;47.600;19.682;2023-04-15T22:08:42;17.75;;;11.55;;
76591;SDS011;65481;47.600;19.682;2023-04-15T22:13:43;13.73;;;10.60;;
76591;SDS011;65481;47.600;19.682;2023-04-15T22:18:43;12.52;;;9.45;;
76591;SDS011;65481;47.600;19.682;2023-04-15T22:23:47;14.68;;;11.43;;
76591;SDS011;65481;47.600;19.682;2023-04-15T22:28:48;14.05;;;10.32;;
76591;SDS011;65481;47.600;19.682;2023-04-15T22:33:48;14.38;;;11.57;;
76591;SDS011;65481;47.600;19.682;2023-04-15T22:38:49;11.50;;;10.30;;
76591;SDS011;65481;47.600;19.682;2023-04-15T22:43:49;11.40;;;8.57;;
76591;SDS011;65481;47.600;19.682;2023-04-15T22:48:50;10.80;;;7.93;;
76591;SDS011;65481;47.600;19.682;2023-04-15T22:53:50;12.80;;;8.50;;
76591;SDS011;65481;47.600;19.682;2023-04-15T22:58:51;9.57;;;7.90;;
76591;SDS011;65481;47.600;19.682;2023-04-15T23:03:51;12.43;;;8.20;;
76591;SDS011;65481;47.600;19.682;2023-04-15T23:08:52;9.73;;;7.82;;
76591;SDS011;65481;47.600;19.682;2023-04-15T23:13:52;8.68;;;7.25;;
76591;SDS011;65481;47.600;19.682;2023-04-15T23:18:53;9.07;;;7.30;;
76591;SDS011;65481;47.600;19.682;2023-04-15T23:23:53;8.93;;;7.60;;
76591;SDS011;65481;47.600;19.682;2023-04-15T23:28:54;7.78;;;6.78;;
76591;SDS011;65481;47.600;19.682;2023-04-15T23:33:55;8.38;;;7.28;;
76591;SDS011;65481;47.600;19.682;2023-04-15T23:38:55;9.13;;;7.25;;
76591;SDS011;65481;47.600;19.682;2023-04-15T23:43:55;10.23;;;7.20;;
76591;SDS011;65481;47.600;19.682;2023-04-15T23:48:57;8.82;;;6.97;;
76591;SDS011;65481;47.600;19.682;2023-04-15T23:53:57;8.45;;;6.82;;
76591;SDS011;65481;47.600;19.682;2023-04-15T23:58:58;8.75;;;6.75;;
